Time,TemperatureF,DewpointF,PressureIn,WindDirection,WindDirectionDegrees,WindSpeedMPH,WindSpeedGustMPH,Humidity,HourlyPrecipIn,Conditions,Clouds,dailyrainin,SoftwareType,DateUTC
2013-01-04 00:00:00,67.6,67.6,30.07,SSE,163,0.0,0.0,100,0.00,,---,0.03,VWS V14.01,2013-01-04 05:00:00,
2013-01-04 00:02:00,67.6,67.6,30.06,SSE,163,0.0,0.0,100,0.00,,---,0.00,VWS V14.01,2013-01-04 05:02:00,
2013-01-04 00:05:00,67.4,67.4,30.06,SSE,163,0.0,0.0,100,0.00,,---,0.00,VWS V14.01,2013-01-04 05:05:00,
2013-01-04 00:10:00,67.3,67.3,30.06,SSE,163,0.0,0.0,100,0.00,,---,0.00,VWS V14.01,2013-01-04 05:10:00,
2013-01-04 00:15:00,67.3,67.3,30.06,SSE,163,0.0,0.0,100,0.00,,---,0.00,VWS V14.01,2013-01-04 05:15:00,
2013-01-04 00:20:00,67.1,67.1,30.06,SSE,163,0.0,0.0,100,0.00,,---,0.00,VWS V14.01,2013-01-04 05:20:00,
2013-01-04 00:25:00,66.9,66.9,30.06,SSE,163,0.0,0.0,100,0.00,,---,0.00,VWS V14.01,2013-01-04 05:25:00,
2013-01-04 00:30:00,66.9,66.9,30.06,SSE,163,0.0,0.0,100,0.00,,---,0.00,VWS V14.01,2013-01-04 05:30:00,
2013-01-04 00:35:00,66.6,66.6,30.05,SSE,163,0.0,0.0,100,0.00,,---,0.00,VWS V14.01,2013-01-04 05:35:00,
2013-01-04 00:40:00,66.4,66.4,30.05,SSE,163,0.0,0.0,100,0.00,,---,0.00,VWS V14.01,2013-01-04 05:40:00,
2013-01-04 00:45:00,66.1,66.1,30.05,SSE,163,0.0,0.0,100,0.00,,---,0.00,VWS V14.01,2013-01-04 05:45:00,
2013-01-04 00:50:00,66.0,66.0,30.05,SSE,163,0.0,0.0,100,0.00,,---,0.00,VWS V14.01,2013-01-04 05:50:00,
2013-01-04 00:55:00,65.8,65.8,30.05,SSE,163,0.0,0.0,100,0.00,,---,0.00,VWS V14.01,2013-01-04 05:55:00,
2013-01-04 01:00:00,66.1,66.1,30.05,SSE,163,0.0,0.0,100,0.00,,---,0.00,VWS V14.01,2013-01-04 06:00:00,
2013-01-04 01:06:00,66.3,66.3,30.05,SSE,163,0.0,0.0,100,0.00,,---,0.00,VWS V14.01,2013-01-04 06:06:00,
2013-01-04 01:11:00,66.1,66.1,30.05,SSE,163,0.0,0.0,100,0.00,,---,0.00,VWS V14.01,2013-01-04 06:11:00,
2013-01-04 01:16:00,66.1,66.1,30.05,SSE,163,0.0,0.0,100,0.00,,---,0.00,VWS V14.01,2013-01-04 06:16:00,
2013-01-04 01:21:00,66.3,66.3,30.05,SSE,163,0.0,0.0,100,0.00,,---,0.00,VWS V14.01,2013-01-04 06:21:00,
2013-01-04 01:26:00,66.4,66.4,30.05,SSE,163,0.0,0.0,100,0.00,,---,0.00,VWS V14.01,2013-01-04 06:26:00,
2013-01-04 01:31:00,66.6,66.6,30.05,SSE,163,0.0,0.0,100,0.00,,---,0.00,VWS V14.01,2013-01-04 06:31:00,
2013-01-04 01:36:00,66.4,66.4,30.05,SSE,163,0.0,0.0,100,0.00,,---,0.00,VWS V14.01,2013-01-04 06:36:00,
2013-01-04 01:41:00,66.4,66.4,30.05,SSE,163,0.0,0.0,100,0.00,,---,0.00,VWS V14.01,2013-01-04 06:41:00,
2013-01-04 01:46:00,66.4,66.4,30.05,SSE,163,0.0,0.0,100,0.00,,---,0.00,VWS V14.01,2013-01-04 06:46:00,
2013-01-04 01:51:00,66.3,66.3,30.05,SSE,163,0.0,0.0,100,0.00,,---,0.00,VWS V14.01,2013-01-04 06:51:00,
2013-01-04 01:56:00,66.3,66.3,30.05,SSE,163,0.0,0.0,100,0.00,,---,0.00,VWS V14.01,2013-01-04 06:56:00,
2013-01-04 02:01:00,66.3,66.3,30.05,SSE,163,0.0,0.0,100,0.00,,---,0.00,VWS V14.01,2013-01-04 07:01:00,
2013-01-04 02:06:00,66.3,66.3,30.05,SSE,163,0.0,0.0,100,0.00,,---,0.00,VWS V14.01,2013-01-04 07:06:00,
2013-01-04 02:11:00,66.3,66.3,30.05,SSE,163,0.0,0.0,100,0.00,,---,0.00,VWS V14.01,2013-01-04 07:11:00,
2013-01-04 02:16:00,66.1,66.1,30.05,SSE,163,0.0,0.0,100,0.00,,---,0.00,VWS V14.01,2013-01-04 07:16:00,
2013-01-04 02:22:00,66.1,66.1,30.05,SSE,163,0.0,0.0,100,0.00,,---,0.00,VWS V14.01,2013-01-04 07:22:00,
2013-01-04 02:27:00,66.0,66.0,30.05,SSE,163,0.0,0.0,100,0.00,,---,0.00,VWS V14.01,2013-01-04 07:27:00,
2013-01-04 02:32:00,66.0,66.0,30.04,SSE,163,0.0,0.0,100,0.00,,---,0.00,VWS V14.01,2013-01-04 07:32:00,
2013-01-04 02:37:00,65.8,65.8,30.04,SSE,163,0.0,0.0,100,0.00,,---,0.00,VWS V14.01,2013-01-04 07:37:00,
2013-01-04 02:42:00,65.6,65.6,30.04,SSE,163,0.0,0.0,100,0.00,,---,0.00,VWS V14.01,2013-01-04 07:42:00,
2013-01-04 02:47:00,65.6,65.6,30.05,SSE,163,0.0,0.0,100,0.00,,---,0.00,VWS V14.01,2013-01-04 07:47:00,
2013-01-04 02:52:00,65.5,65.5,30.05,SSE,163,0.0,0.0,100,0.00,,---,0.00,VWS V14.01,2013-01-04 07:52:00,
2013-01-04 02:57:00,65.5,65.5,30.05,SSE,163,0.0,0.0,100,0.00,,---,0.00,VWS V14.01,2013-01-04 07:57:00,
2013-01-04 03:02:00,65.5,65.5,30.05,SSE,163,0.0,0.0,100,0.00,,---,0.00,VWS V14.01,2013-01-04 08:02:00,
2013-01-04 03:07:00,65.3,65.3,30.05,SSE,163,0.0,1.0,100,0.00,,---,0.00,VWS V14.01,2013-01-04 08:07:00,
2013-01-04 03:13:00,65.5,65.5,30.05,SSE,163,0.0,1.0,100,0.00,,---,0.00,VWS V14.01,2013-01-04 08:13:00,
2013-01-04 03:18:00,65.5,65.5,30.05,SSE,163,0.0,1.0,100,0.00,,---,0.00,VWS V14.01,2013-01-04 08:18:00,
2013-01-04 03:23:00,65.5,65.5,30.05,SSE,163,0.0,1.0,100,0.00,,---,0.00,VWS V14.01,2013-01-04 08:23:00,
2013-01-04 03:28:00,65.5,65.5,30.05,SSE,163,0.0,1.0,100,0.00,,---,0.00,VWS V14.01,2013-01-04 08:28:00,
2013-01-04 03:33:00,65.5,65.5,30.05,SSE,163,0.0,0.0,100,0.00,,---,0.00,VWS V14.01,2013-01-04 08:33:00,
2013-01-04 03:38:00,65.5,65.5,30.05,SSE,163,0.0,0.0,100,0.00,,---,0.00,VWS V14.01,2013-01-04 08:38:00,
2013-01-04 03:43:00,65.5,65.5,30.05,SSE,163,0.0,0.0,100,0.00,,---,0.00,VWS V14.01,2013-01-04 08:43:00,
2013-01-04 03:48:00,65.5,65.5,30.05,SSE,163,0.0,0.0,100,0.00,,---,0.00,VWS V14.01,2013-01-04 08:48:00,
2013-01-04 03:53:00,65.5,65.5,30.05,SSE,163,0.0,0.0,100,0.00,,---,0.00,VWS V14.01,2013-01-04 08:53:00,
2013-01-04 03:58:00,65.3,65.3,30.05,SSE,163,0.0,0.0,100,0.00,,---,0.00,VWS V14.01,2013-01-04 08:58:00,
2013-01-04 04:03:00,65.3,65.3,30.05,SSE,163,0.0,0.0,100,0.00,,---,0.00,VWS V14.01,2013-01-04 09:03:00,
2013-01-04 04:08:00,65.2,65.2,30.05,SSE,163,0.0,0.0,100,0.00,,---,0.00,VWS V14.01,2013-01-04 09:08:00,
2013-01-04 04:13:00,65.2,65.2,30.05,SSE,163,0.0,0.0,100,0.00,,---,0.00,VWS V14.01,2013-01-04 09:13:00,
2013-01-04 04:18:00,65.0,65.0,30.05,SSE,163,0.0,0.0,100,0.00,,---,0.00,VWS V14.01,2013-01-04 09:18:00,
2013-01-04 04:23:00,65.0,65.0,30.05,SSE,163,0.0,0.0,100,0.00,,---,0.00,VWS V14.01,2013-01-04 09:23:00,
2013-01-04 04:29:00,65.0,65.0,30.05,SSE,163,0.0,0.0,100,0.00,,---,0.00,VWS V14.01,2013-01-04 09:29:00,
2013-01-04 04:34:00,64.8,64.8,30.05,SSE,163,0.0,0.0,100,0.00,,---,0.00,VWS V14.01,2013-01-04 09:34:00,
2013-01-04 04:39:00,65.0,65.0,30.05,SSE,163,0.0,0.0,100,0.00,,---,0.00,VWS V14.01,2013-01-04 09:39:00,
2013-01-04 04:44:00,65.0,65.0,30.05,SSE,163,0.0,0.0,100,0.00,,---,0.00,VWS V14.01,2013-01-04 09:44:00,
2013-01-04 04:49:00,65.0,65.0,30.05,SSE,163,0.0,0.0,100,0.00,,---,0.00,VWS V14.01,2013-01-04 09:49:00,
2013-01-04 04:54:00,65.0,65.0,30.05,SSE,163,0.0,0.0,100,0.00,,---,0.00,VWS V14.01,2013-01-04 09:54:00,
2013-01-04 04:59:00,65.0,65.0,30.05,SSE,163,0.0,0.0,100,0.00,,---,0.00,VWS V14.01,2013-01-04 09:59:00,
2013-01-04 05:04:00,65.0,65.0,30.05,SSE,163,0.0,0.0,100,0.00,,---,0.00,VWS V14.01,2013-01-04 10:04:00,
2013-01-04 05:09:00,65.0,65.0,30.05,SSE,163,0.0,0.0,100,0.00,,---,0.00,VWS V14.01,2013-01-04 10:09:00,
2013-01-04 05:14:00,65.0,65.0,30.05,SSE,163,0.0,0.0,100,0.00,,---,0.00,VWS V14.01,2013-01-04 10:14:00,
2013-01-04 05:20:00,65.2,65.2,30.06,SSE,163,0.0,0.0,100,0.00,,---,0.00,VWS V14.01,2013-01-04 10:20:00,
2013-01-04 05:25:00,65.2,65.2,30.06,SSE,163,0.0,0.0,100,0.00,,---,0.00,VWS V14.01,2013-01-04 10:25:00,
2013-01-04 05:30:00,65.3,65.3,30.06,SSE,163,0.0,0.0,100,0.00,,---,0.00,VWS V14.01,2013-01-04 10:30:00,
2013-01-04 05:35:00,65.3,65.3,30.06,SSE,163,0.0,0.0,100,0.00,,---,0.00,VWS V14.01,2013-01-04 10:35:00,
2013-01-04 05:40:00,65.3,65.3,30.06,SSE,163,0.0,0.0,100,0.00,,---,0.00,VWS V14.01,2013-01-04 10:40:00,
2013-01-04 05:45:00,65.5,65.5,30.06,SSE,163,0.0,0.0,100,0.00,,---,0.00,VWS V14.01,2013-01-04 10:45:00,
2013-01-04 05:50:00,65.5,65.5,30.06,SSE,163,0.0,0.0,100,0.00,,---,0.00,VWS V14.01,2013-01-04 10:50:00,
2013-01-04 05:55:00,65.5,65.5,30.06,SSE,163,0.0,0.0,100,0.00,,---,0.00,VWS V14.01,2013-01-04 10:55:00,
2013-01-04 06:00:00,65.6,65.6,30.06,SSE,163,0.0,0.0,100,0.00,,---,0.00,VWS V14.01,2013-01-04 11:00:00,
2013-01-04 06:05:00,65.6,65.6,30.07,SSE,163,0.0,0.0,100,0.00,,---,0.00,VWS V14.01,2013-01-04 11:05:00,
2013-01-04 06:10:00,65.8,65.8,30.07,SSE,163,0.0,0.0,100,0.00,,---,0.00,VWS V14.01,2013-01-04 11:10:00,
2013-01-04 06:15:00,65.8,65.8,30.07,SSE,163,0.0,0.0,100,0.00,,---,0.00,VWS V14.01,2013-01-04 11:15:00,
2013-01-04 06:20:00,65.8,65.8,30.07,SSE,163,0.0,0.0,100,0.00,,---,0.00,VWS V14.01,2013-01-04 11:20:00,
2013-01-04 06:26:00,65.8,65.8,30.07,SSE,163,0.0,0.0,100,0.00,,---,0.00,VWS V14.01,2013-01-04 11:26:00,
2013-01-04 06:31:00,65.8,65.8,30.07,SSE,163,0.0,0.0,100,0.00,,---,0.00,VWS V14.01,2013-01-04 11:31:00,
2013-01-04 06:36:00,65.8,65.8,30.07,SSE,163,0.0,0.0,100,0.00,,---,0.00,VWS V14.01,2013-01-04 11:36:00,
2013-01-04 06:41:00,65.6,65.6,30.07,SSE,163,0.0,0.0,100,0.00,,---,0.00,VWS V14.01,2013-01-04 11:41:00,
2013-01-04 06:46:00,65.6,65.6,30.08,SSE,163,0.0,0.0,100,0.00,,---,0.00,VWS V14.01,2013-01-04 11:46:00,
2013-01-04 06:51:00,65.5,65.5,30.08,SSE,163,0.0,0.0,100,0.00,,---,0.00,VWS V14.01,2013-01-04 11:51:00,
2013-01-04 06:56:00,65.5,65.5,30.08,SSE,163,0.0,0.0,100,0.00,,---,0.00,VWS V14.01,2013-01-04 11:56:00,
2013-01-04 07:01:00,65.3,65.3,30.08,SSE,163,0.0,0.0,100,0.00,,---,0.00,VWS V14.01,2013-01-04 12:01:00,
2013-01-04 07:06:00,65.3,65.3,30.08,SSE,163,0.0,0.0,100,0.00,,---,0.00,VWS V14.01,2013-01-04 12:06:00,
2013-01-04 07:11:00,65.3,65.3,30.08,SSE,163,0.0,0.0,100,0.00,,---,0.00,VWS V14.01,2013-01-04 12:11:00,
2013-01-04 07:16:00,65.2,65.2,30.08,SSE,163,0.0,0.0,100,0.00,,---,0.00,VWS V14.01,2013-01-04 12:16:00,
2013-01-04 07:21:00,65.2,65.2,30.08,SSE,163,0.0,0.0,100,0.00,,---,0.00,VWS V14.01,2013-01-04 12:21:00,
2013-01-04 07:27:00,65.2,65.2,30.08,SSE,163,0.0,0.0,100,0.00,,---,0.00,VWS V14.01,2013-01-04 12:27:00,
2013-01-04 07:32:00,65.3,65.3,30.09,SSE,163,0.0,0.0,100,0.00,,---,0.00,VWS V14.01,2013-01-04 12:32:00,
2013-01-04 07:37:00,65.5,65.5,30.09,SSE,163,2.0,2.0,100,0.00,,---,0.00,VWS V14.01,2013-01-04 12:37:00,
2013-01-04 07:42:00,65.6,65.6,30.09,SSE,163,0.0,2.0,100,0.00,,---,0.00,VWS V14.01,2013-01-04 12:42:00,
2013-01-04 07:47:00,65.8,65.8,30.10,SSE,163,0.0,2.0,100,0.00,,---,0.00,VWS V14.01,2013-01-04 12:47:00,
2013-01-04 07:52:00,66.1,66.1,30.10,SSE,163,1.0,2.0,100,0.00,,---,0.00,VWS V14.01,2013-01-04 12:52:00,
2013-01-04 07:57:00,66.8,66.8,30.10,SSE,163,1.0,2.0,100,0.00,,---,0.00,VWS V14.01,2013-01-04 12:57:00,
2013-01-04 08:02:00,67.1,67.1,30.11,SSE,163,0.0,0.0,100,0.00,,---,0.00,VWS V14.01,2013-01-04 13:02:00,
2013-01-04 08:07:00,67.4,67.4,30.11,SSE,163,0.0,0.0,100,0.00,,---,0.00,VWS V14.01,2013-01-04 13:07:00,
2013-01-04 08:12:00,67.8,67.8,30.11,SSE,163,0.0,0.0,100,0.00,,---,0.00,VWS V14.01,2013-01-04 13:12:00,
2013-01-04 08:17:00,68.1,68.1,30.11,SSE,163,0.0,3.0,100,0.00,,---,0.00,VWS V14.01,2013-01-04 13:17:00,
2013-01-04 08:22:00,68.4,68.4,30.11,SSE,163,0.0,3.0,100,0.00,,---,0.00,VWS V14.01,2013-01-04 13:22:00,
2013-01-04 08:28:00,68.8,68.8,30.11,SSE,163,1.0,3.0,100,0.00,,---,0.00,VWS V14.01,2013-01-04 13:28:00,
2013-01-04 08:33:00,69.4,69.4,30.12,SSE,163,2.0,2.0,100,0.00,,---,0.00,VWS V14.01,2013-01-04 13:33:00,
2013-01-04 08:38:00,70.1,70.1,30.12,SSE,163,2.0,2.0,100,0.00,,---,0.00,VWS V14.01,2013-01-04 13:38:00,
2013-01-04 08:43:00,70.4,70.4,30.12,SSE,163,2.0,4.0,100,0.00,,---,0.00,VWS V14.01,2013-01-04 13:43:00,
2013-01-04 08:48:00,70.9,70.9,30.12,SSE,163,3.0,4.0,100,0.00,,---,0.00,VWS V14.01,2013-01-04 13:48:00,
2013-01-04 08:53:00,71.5,71.5,30.12,SSE,163,4.0,4.0,100,0.00,,---,0.00,VWS V14.01,2013-01-04 13:53:00,
2013-01-04 08:58:00,71.8,71.8,30.12,SSE,163,1.0,4.0,100,0.00,,---,0.00,VWS V14.01,2013-01-04 13:58:00,
2013-01-04 09:03:00,72.3,72.3,30.13,SSE,163,0.0,2.0,100,0.00,,---,0.00,VWS V14.01,2013-01-04 14:03:00,
2013-01-04 09:08:00,72.7,72.7,30.13,SSE,163,3.0,3.0,100,0.00,,---,0.00,VWS V14.01,2013-01-04 14:08:00,
2013-01-04 09:13:00,73.2,72.6,30.13,SSE,163,4.0,4.0,98,0.00,,---,0.00,VWS V14.01,2013-01-04 14:13:00,
2013-01-04 09:18:00,73.5,72.3,30.14,SSE,163,2.0,4.0,96,0.00,,---,0.00,VWS V14.01,2013-01-04 14:18:00,
2013-01-04 09:23:00,74.2,72.7,30.14,SSE,163,3.0,4.0,95,0.00,,---,0.00,VWS V14.01,2013-01-04 14:23:00,
2013-01-04 09:28:00,74.4,72.2,30.14,SE,132,3.0,5.0,93,0.00,,---,0.00,VWS V14.01,2013-01-04 14:28:00,
2013-01-04 09:33:00,74.6,72.1,30.14,WNW,297,2.0,4.0,92,0.00,,---,0.00,VWS V14.01,2013-01-04 14:33:00,
2013-01-04 09:38:00,74.6,72.4,30.14,WNW,302,2.0,5.0,93,0.00,,---,0.00,VWS V14.01,2013-01-04 14:38:00,
2013-01-04 09:43:00,75.3,72.2,30.14,WNW,302,4.0,5.0,90,0.00,,---,0.00,VWS V14.01,2013-01-04 14:43:00,
2013-01-04 09:49:00,75.6,72.1,30.14,NW,305,5.0,5.0,89,0.00,,---,0.00,VWS V14.01,2013-01-04 14:49:00,
2013-01-04 09:54:00,76.0,72.5,30.14,NW,305,0.0,5.0,89,0.00,,---,0.00,VWS V14.01,2013-01-04 14:54:00,
2013-01-04 09:59:00,76.7,72.9,30.14,NW,305,4.0,5.0,88,0.00,,---,0.00,VWS V14.01,2013-01-04 14:59:00,
2013-01-04 10:04:00,76.7,72.9,30.14,NW,305,2.0,4.0,88,0.00,,---,0.00,VWS V14.01,2013-01-04 15:04:00,
2013-01-04 10:09:00,76.7,72.9,30.14,NW,306,2.0,5.0,88,0.00,,---,0.00,VWS V14.01,2013-01-04 15:09:00,
2013-01-04 10:14:00,76.7,72.5,30.14,WNW,302,2.0,5.0,87,0.00,,---,0.00,VWS V14.01,2013-01-04 15:14:00,
2013-01-04 10:19:00,76.0,72.5,30.14,WNW,301,0.0,5.0,89,0.00,,---,0.00,VWS V14.01,2013-01-04 15:19:00,
2013-01-04 10:24:00,77.2,73.7,30.14,NW,304,5.0,5.0,89,0.00,,---,0.00,VWS V14.01,2013-01-04 15:24:00,
2013-01-04 10:29:00,78.3,72.7,30.14,NW,304,0.0,5.0,83,0.00,,---,0.00,VWS V14.01,2013-01-04 15:29:00,
2013-01-04 10:34:00,78.3,73.1,30.14,WNW,300,0.0,5.0,84,0.00,,---,0.00,VWS V14.01,2013-01-04 15:34:00,
2013-01-04 10:39:00,77.9,73.0,30.14,WNW,300,0.0,5.0,85,0.00,,---,0.00,VWS V14.01,2013-01-04 15:39:00,
2013-01-04 10:44:00,77.7,72.8,30.14,WNW,300,1.0,5.0,85,0.00,,---,0.00,VWS V14.01,2013-01-04 15:44:00,
2013-01-04 10:49:00,77.6,72.7,30.14,WNW,300,4.0,5.0,85,0.00,,---,0.00,VWS V14.01,2013-01-04 15:49:00,
2013-01-04 10:54:00,77.6,73.1,30.14,WNW,300,0.0,5.0,86,0.00,,---,0.00,VWS V14.01,2013-01-04 15:54:00,
2013-01-04 11:00:00,77.6,72.7,30.14,WNW,300,2.0,5.0,85,0.00,,---,0.00,VWS V14.01,2013-01-04 16:00:00,
2013-01-04 11:05:00,77.7,72.8,30.13,WNW,300,0.0,0.0,85,0.00,,---,0.00,VWS V14.01,2013-01-04 16:05:00,
2013-01-04 11:10:00,79.6,74.7,30.13,WNW,300,0.0,2.0,85,0.00,,---,0.00,VWS V14.01,2013-01-04 16:10:00,
2013-01-04 11:15:00,79.0,72.3,30.13,WNW,300,1.0,3.0,80,0.00,,---,0.00,VWS V14.01,2013-01-04 16:15:00,
2013-01-04 11:20:00,79.0,73.0,30.13,WNW,300,3.0,3.0,82,0.00,,---,0.00,VWS V14.01,2013-01-04 16:20:00,
2013-01-04 11:25:00,79.6,72.1,30.13,WNW,298,3.0,5.0,78,0.00,,---,0.00,VWS V14.01,2013-01-04 16:25:00,
2013-01-04 11:30:00,78.6,71.6,30.13,WNW,298,2.0,5.0,79,0.00,,---,0.00,VWS V14.01,2013-01-04 16:30:00,
2013-01-04 11:35:00,78.8,72.8,30.12,WNW,298,0.0,0.0,82,0.00,,---,0.00,VWS V14.01,2013-01-04 16:35:00,
2013-01-04 11:40:00,79.4,71.9,30.12,WNW,302,0.0,4.0,78,0.00,,---,0.00,VWS V14.01,2013-01-04 16:40:00,
2013-01-04 11:45:00,79.6,71.0,30.12,WNW,302,2.0,4.0,75,0.00,,---,0.00,VWS V14.01,2013-01-04 16:45:00,
2013-01-04 11:50:00,80.3,72.8,30.12,WNW,298,0.0,5.0,78,0.00,,---,0.00,VWS V14.01,2013-01-04 16:50:00,
2013-01-04 11:55:00,80.3,72.1,30.12,WNW,297,4.0,5.0,76,0.00,,---,0.00,VWS V14.01,2013-01-04 16:55:00,
2013-01-04 12:00:00,80.9,71.8,30.12,WNW,297,3.0,5.0,74,0.00,,---,0.00,VWS V14.01,2013-01-04 17:00:00,
2013-01-04 12:05:00,81.4,71.5,30.11,WNW,294,3.0,4.0,72,0.00,,---,0.00,VWS V14.01,2013-01-04 17:05:00,
2013-01-04 12:11:00,81.6,70.4,30.11,WNW,290,2.0,4.0,69,0.00,,---,0.00,VWS V14.01,2013-01-04 17:11:00,
2013-01-04 12:16:00,80.5,70.7,30.10,WNW,290,2.0,4.0,72,0.00,,---,0.00,VWS V14.01,2013-01-04 17:16:00,
2013-01-04 12:21:00,81.2,70.5,30.10,WNW,290,3.0,4.0,70,0.00,,---,0.00,VWS V14.01,2013-01-04 17:21:00,
2013-01-04 12:26:00,80.7,70.4,30.10,WNW,291,5.0,5.0,71,0.00,,---,0.00,VWS V14.01,2013-01-04 17:26:00,
2013-01-04 12:31:00,80.7,70.4,30.09,WNW,289,0.0,5.0,71,0.00,,---,0.00,VWS V14.01,2013-01-04 17:31:00,
2013-01-04 12:36:00,81.6,71.7,30.09,WNW,290,0.0,4.0,72,0.00,,---,0.00,VWS V14.01,2013-01-04 17:36:00,
2013-01-04 12:41:00,81.6,72.1,30.09,WNW,288,3.0,5.0,73,0.00,,---,0.00,VWS V14.01,2013-01-04 17:41:00,
2013-01-04 12:46:00,80.9,71.0,30.09,WNW,288,1.0,5.0,72,0.00,,---,0.00,VWS V14.01,2013-01-04 17:46:00,
2013-01-04 12:51:00,81.2,71.7,30.09,WNW,289,1.0,5.0,73,0.00,,---,0.00,VWS V14.01,2013-01-04 17:51:00,
2013-01-04 12:56:00,80.9,71.4,30.09,West,279,4.0,10.0,73,0.00,,---,0.00,VWS V14.01,2013-01-04 17:56:00,
2013-01-04 13:01:00,80.9,71.0,30.08,West,277,4.0,10.0,72,0.00,,---,0.00,VWS V14.01,2013-01-04 18:01:00,
2013-01-04 13:06:00,82.0,72.5,30.08,West,279,3.0,5.0,73,0.00,,---,0.00,VWS V14.01,2013-01-04 18:06:00,
2013-01-04 13:11:00,83.4,71.7,30.08,West,279,2.0,5.0,68,0.00,,---,0.00,VWS V14.01,2013-01-04 18:11:00,
2013-01-04 13:16:00,83.6,72.4,30.08,West,279,4.0,5.0,69,0.00,,---,0.00,VWS V14.01,2013-01-04 18:16:00,
2013-01-04 13:21:00,83.0,71.8,30.08,West,279,2.0,5.0,69,0.00,,---,0.00,VWS V14.01,2013-01-04 18:21:00,
2013-01-04 13:26:00,82.4,71.6,30.08,West,281,4.0,6.0,70,0.00,,---,0.00,VWS V14.01,2013-01-04 18:26:00,
2013-01-04 13:31:00,82.6,72.2,30.07,West,280,5.0,6.0,71,0.00,,---,0.00,VWS V14.01,2013-01-04 18:31:00,
2013-01-04 13:37:00,82.0,71.3,30.07,West,277,2.0,6.0,70,0.00,,---,0.00,VWS V14.01,2013-01-04 18:37:00,
2013-01-04 13:42:00,82.6,71.0,30.07,West,279,5.0,6.0,68,0.00,,---,0.00,VWS V14.01,2013-01-04 18:42:00,
2013-01-04 13:47:00,83.8,71.7,30.06,West,280,3.0,6.0,67,0.00,,---,0.00,VWS V14.01,2013-01-04 18:47:00,
2013-01-04 13:52:00,84.1,71.5,30.06,West,281,2.0,6.0,66,0.00,,---,0.00,VWS V14.01,2013-01-04 18:52:00,
2013-01-04 13:57:00,85.1,72.0,30.06,West,281,3.0,6.0,65,0.00,,---,0.00,VWS V14.01,2013-01-04 18:57:00,
2013-01-04 14:02:00,84.9,71.8,30.06,WNW,297,1.0,6.0,65,0.00,,---,0.00,VWS V14.01,2013-01-04 19:02:00,
2013-01-04 14:07:00,84.7,71.2,30.06,WNW,298,2.0,5.0,64,0.00,,---,0.00,VWS V14.01,2013-01-04 19:07:00,
2013-01-04 14:12:00,84.3,70.8,30.06,WNW,298,0.0,5.0,64,0.00,,---,0.00,VWS V14.01,2013-01-04 19:12:00,
2013-01-04 14:17:00,85.3,71.3,30.06,WNW,299,1.0,5.0,63,0.00,,---,0.00,VWS V14.01,2013-01-04 19:17:00,
2013-01-04 14:22:00,84.7,70.7,30.06,WNW,299,4.0,5.0,63,0.00,,---,0.00,VWS V14.01,2013-01-04 19:22:00,
2013-01-04 14:27:00,84.0,71.9,30.06,WNW,298,3.0,6.0,67,0.00,,---,0.00,VWS V14.01,2013-01-04 19:27:00,
2013-01-04 14:32:00,83.8,70.3,30.05,WNW,299,3.0,3.0,64,0.00,,---,0.00,VWS V14.01,2013-01-04 19:32:00,
2013-01-04 14:37:00,85.3,71.3,30.05,NW,305,0.0,6.0,63,0.00,,---,0.00,VWS V14.01,2013-01-04 19:37:00,
2013-01-04 14:42:00,85.7,70.2,30.05,NW,307,1.0,6.0,60,0.00,,---,0.00,VWS V14.01,2013-01-04 19:42:00,
2013-01-04 14:48:00,84.7,70.7,30.06,NW,309,3.0,6.0,63,0.00,,---,0.00,VWS V14.01,2013-01-04 19:48:00,
2013-01-04 14:53:00,84.3,70.8,30.06,NW,309,3.0,6.0,64,0.00,,---,0.00,VWS V14.01,2013-01-04 19:53:00,
2013-01-04 14:58:00,83.4,69.9,30.06,NW,325,3.0,6.0,64,0.00,,---,0.00,VWS V14.01,2013-01-04 19:58:00,
2013-01-04 15:03:00,83.0,70.0,30.05,NNW,328,3.0,3.0,65,0.00,,---,0.00,VWS V14.01,2013-01-04 20:03:00,
2013-01-04 15:08:00,82.4,71.6,30.05,ENE,58,5.0,5.0,70,0.00,,---,0.00,VWS V14.01,2013-01-04 20:08:00,
2013-01-04 15:13:00,81.4,72.3,30.05,ENE,69,4.0,5.0,74,0.00,,---,0.00,VWS V14.01,2013-01-04 20:13:00,
2013-01-04 15:18:00,80.5,72.2,30.06,ENE,66,2.0,7.0,76,0.00,,---,0.00,VWS V14.01,2013-01-04 20:18:00,
2013-01-04 15:23:00,79.8,72.7,30.06,ENE,76,4.0,7.0,79,0.00,,---,0.00,VWS V14.01,2013-01-04 20:23:00,
2013-01-04 15:28:00,78.8,72.1,30.06,East,84,3.0,7.0,80,0.00,,---,0.00,VWS V14.01,2013-01-04 20:28:00,
2013-01-04 15:33:00,78.5,72.2,30.06,ENE,76,3.0,3.0,81,0.00,,---,0.00,VWS V14.01,2013-01-04 20:33:00,
2013-01-04 15:38:00,78.5,72.2,30.06,ENE,75,6.0,6.0,81,0.00,,---,0.00,VWS V14.01,2013-01-04 20:38:00,
2013-01-04 15:43:00,78.3,72.4,30.06,East,79,4.0,6.0,82,0.00,,---,0.00,VWS V14.01,2013-01-04 20:43:00,
2013-01-04 15:48:00,78.1,72.5,30.06,East,80,5.0,6.0,83,0.00,,---,0.00,VWS V14.01,2013-01-04 20:48:00,
2013-01-04 15:53:00,77.9,72.3,30.06,East,86,2.0,6.0,83,0.00,,---,0.00,VWS V14.01,2013-01-04 20:53:00,
2013-01-04 15:58:00,78.1,72.5,30.06,East,86,6.0,6.0,83,0.00,,---,0.00,VWS V14.01,2013-01-04 20:58:00,
2013-01-04 16:04:00,78.5,72.6,30.07,East,87,3.0,6.0,82,0.00,,---,0.00,VWS V14.01,2013-01-04 21:04:00,
2013-01-04 16:09:00,78.8,72.5,30.07,East,84,1.0,7.0,81,0.00,,---,0.00,VWS V14.01,2013-01-04 21:09:00,
2013-01-04 16:14:00,78.8,72.5,30.07,East,84,3.0,7.0,81,0.00,,---,0.00,VWS V14.01,2013-01-04 21:14:00,
2013-01-04 16:19:00,78.6,72.3,30.07,East,83,4.0,7.0,81,0.00,,---,0.00,VWS V14.01,2013-01-04 21:19:00,
2013-01-04 16:24:00,78.5,72.2,30.07,East,82,4.0,7.0,81,0.00,,---,0.00,VWS V14.01,2013-01-04 21:24:00,
2013-01-04 16:29:00,78.3,72.4,30.07,ENE,76,3.0,7.0,82,0.00,,---,0.00,VWS V14.01,2013-01-04 21:29:00,
2013-01-04 16:34:00,78.3,72.0,30.08,ENE,76,4.0,4.0,81,0.00,,---,0.00,VWS V14.01,2013-01-04 21:34:00,
2013-01-04 16:39:00,78.3,72.0,30.08,ENE,77,2.0,5.0,81,0.00,,---,0.00,VWS V14.01,2013-01-04 21:39:00,
2013-01-04 16:44:00,78.5,71.8,30.08,ENE,77,3.0,6.0,80,0.00,,---,0.00,VWS V14.01,2013-01-04 21:44:00,
2013-01-04 16:49:00,77.9,72.0,30.08,ENE,76,3.0,6.0,82,0.00,,---,0.00,VWS V14.01,2013-01-04 21:49:00,
2013-01-04 16:54:00,77.7,72.1,30.08,ENE,77,3.0,6.0,83,0.00,,---,0.00,VWS V14.01,2013-01-04 21:54:00,
2013-01-04 16:59:00,77.7,72.1,30.08,ENE,76,4.0,6.0,83,0.00,,---,0.00,VWS V14.01,2013-01-04 21:59:00,
2013-01-04 17:04:00,77.4,71.8,30.08,ENE,76,2.0,4.0,83,0.00,,---,0.00,VWS V14.01,2013-01-04 22:04:00,
2013-01-04 17:09:00,77.4,71.8,30.08,ENE,76,1.0,4.0,83,0.00,,---,0.00,VWS V14.01,2013-01-04 22:09:00,
2013-01-04 17:15:00,77.2,71.6,30.08,ENE,76,1.0,4.0,83,0.00,,---,0.00,VWS V14.01,2013-01-04 22:15:00,
2013-01-04 17:20:00,77.0,71.4,30.08,ENE,77,3.0,4.0,83,0.00,,---,0.00,VWS V14.01,2013-01-04 22:20:00,
2013-01-04 17:25:00,76.7,71.9,30.08,ENE,78,2.0,5.0,85,0.00,,---,0.00,VWS V14.01,2013-01-04 22:25:00,
2013-01-04 17:30:00,76.5,71.7,30.08,ENE,78,2.0,5.0,85,0.00,,---,0.00,VWS V14.01,2013-01-04 22:30:00,
2013-01-04 17:35:00,76.3,71.8,30.08,ENE,78,1.0,3.0,86,0.00,,---,0.00,VWS V14.01,2013-01-04 22:35:00,
2013-01-04 17:40:00,76.3,72.2,30.08,ENE,78,2.0,3.0,87,0.00,,---,0.00,VWS V14.01,2013-01-04 22:40:00,
2013-01-04 17:45:00,76.1,71.9,30.08,ENE,78,5.0,5.0,87,0.00,,---,0.00,VWS V14.01,2013-01-04 22:45:00,
2013-01-04 17:50:00,76.0,72.2,30.09,ENE,78,3.0,5.0,88,0.00,,---,0.00,VWS V14.01,2013-01-04 22:50:00,
2013-01-04 17:55:00,75.8,72.3,30.09,ENE,78,4.0,5.0,89,0.00,,---,0.00,VWS V14.01,2013-01-04 22:55:00,
2013-01-04 18:00:00,75.6,72.1,30.09,ENE,77,1.0,7.0,89,0.00,,---,0.00,VWS V14.01,2013-01-04 23:00:00,
2013-01-04 18:05:00,75.6,72.1,30.10,ENE,77,2.0,4.0,89,0.00,,---,0.00,VWS V14.01,2013-01-04 23:05:00,
2013-01-04 18:11:00,75.4,72.3,30.10,ENE,76,1.0,5.0,90,0.00,,---,0.00,VWS V14.01,2013-01-04 23:11:00,
2013-01-04 18:16:00,75.4,72.3,30.11,ENE,76,5.0,5.0,90,0.00,,---,0.00,VWS V14.01,2013-01-04 23:16:00,
2013-01-04 18:21:00,75.3,72.2,30.11,ENE,77,5.0,5.0,90,0.00,,---,0.00,VWS V14.01,2013-01-04 23:21:00,
2013-01-04 18:26:00,75.3,72.2,30.11,ENE,77,3.0,6.0,90,0.00,,---,0.00,VWS V14.01,2013-01-04 23:26:00,
2013-01-04 18:31:00,75.1,72.0,30.11,ENE,76,3.0,6.0,90,0.00,,---,0.00,VWS V14.01,2013-01-04 23:31:00,
2013-01-04 18:36:00,74.9,71.8,30.11,ENE,76,3.0,5.0,90,0.00,,---,0.00,VWS V14.01,2013-01-04 23:36:00,
2013-01-04 18:41:00,74.7,71.9,30.11,ENE,76,3.0,5.0,91,0.00,,---,0.00,VWS V14.01,2013-01-04 23:41:00,
2013-01-04 18:46:00,74.7,71.9,30.12,ENE,76,1.0,5.0,91,0.00,,---,0.00,VWS V14.01,2013-01-04 23:46:00,
2013-01-04 18:51:00,74.6,71.8,30.12,ENE,76,5.0,5.0,91,0.00,,---,0.00,VWS V14.01,2013-01-04 23:51:00,
2013-01-04 18:56:00,74.6,72.1,30.12,ENE,76,4.0,5.0,92,0.00,,---,0.00,VWS V14.01,2013-01-04 23:56:00,
2013-01-04 19:01:00,74.6,72.1,30.12,ENE,76,2.0,5.0,92,0.00,,---,0.00,VWS V14.01,2013-01-05 00:01:00,
2013-01-04 19:06:00,74.4,71.9,30.12,ENE,76,1.0,4.0,92,0.00,,---,0.00,VWS V14.01,2013-01-05 00:06:00,
2013-01-04 19:11:00,74.4,71.9,30.12,ENE,76,2.0,5.0,92,0.00,,---,0.00,VWS V14.01,2013-01-05 00:11:00,
2013-01-04 19:16:00,74.4,71.9,30.13,ENE,76,4.0,5.0,92,0.00,,---,0.00,VWS V14.01,2013-01-05 00:16:00,
2013-01-04 19:22:00,74.4,71.9,30.13,ENE,76,1.0,5.0,92,0.00,,---,0.00,VWS V14.01,2013-01-05 00:22:00,
2013-01-04 19:27:00,74.4,71.9,30.13,ENE,76,1.0,5.0,92,0.00,,---,0.00,VWS V14.01,2013-01-05 00:27:00,
2013-01-04 19:32:00,74.4,71.6,30.13,ENE,76,3.0,5.0,91,0.00,,---,0.00,VWS V14.01,2013-01-05 00:32:00,
2013-01-04 19:37:00,74.2,71.4,30.13,ENE,76,1.0,4.0,91,0.00,,---,0.00,VWS V14.01,2013-01-05 00:37:00,
2013-01-04 19:42:00,74.2,71.4,30.13,ENE,76,1.0,4.0,91,0.00,,---,0.00,VWS V14.01,2013-01-05 00:42:00,
2013-01-04 19:47:00,74.0,71.2,30.14,ENE,76,2.0,4.0,91,0.00,,---,0.00,VWS V14.01,2013-01-05 00:47:00,
2013-01-04 19:52:00,74.0,71.2,30.14,ENE,76,1.0,4.0,91,0.00,,---,0.00,VWS V14.01,2013-01-05 00:52:00,
2013-01-04 19:57:00,74.0,71.2,30.14,ENE,76,0.0,4.0,91,0.00,,---,0.00,VWS V14.01,2013-01-05 00:57:00,
2013-01-04 20:02:00,74.0,71.5,30.14,ENE,76,0.0,0.0,92,0.00,,---,0.00,VWS V14.01,2013-01-05 01:02:00,
2013-01-04 20:07:00,73.9,71.4,30.14,ENE,76,2.0,2.0,92,0.00,,---,0.00,VWS V14.01,2013-01-05 01:07:00,
2013-01-04 20:12:00,73.9,71.4,30.14,ENE,76,1.0,2.0,92,0.00,,---,0.00,VWS V14.01,2013-01-05 01:12:00,
2013-01-04 20:17:00,73.9,71.8,30.15,ENE,76,1.0,2.0,93,0.00,,---,0.00,VWS V14.01,2013-01-05 01:17:00,
2013-01-04 20:22:00,73.7,71.6,30.15,ENE,76,0.0,4.0,93,0.00,,---,0.00,VWS V14.01,2013-01-05 01:22:00,
2013-01-04 20:28:00,73.7,71.6,30.15,ENE,76,0.0,4.0,93,0.00,,---,0.00,VWS V14.01,2013-01-05 01:28:00,
2013-01-04 20:33:00,73.5,71.7,30.16,ENE,76,0.0,0.0,94,0.00,,---,0.00,VWS V14.01,2013-01-05 01:33:00,
2013-01-04 20:38:00,73.3,71.8,30.16,ENE,76,1.0,3.0,95,0.00,,---,0.00,VWS V14.01,2013-01-05 01:38:00,
2013-01-04 20:43:00,73.3,71.8,30.16,ENE,76,0.0,3.0,95,0.00,,---,0.00,VWS V14.01,2013-01-05 01:43:00,
2013-01-04 20:48:00,73.2,71.7,30.16,ENE,76,2.0,3.0,95,0.00,,---,0.00,VWS V14.01,2013-01-05 01:48:00,
2013-01-04 20:53:00,73.0,71.8,30.16,ENE,76,3.0,3.0,96,0.00,,---,0.00,VWS V14.01,2013-01-05 01:53:00,
2013-01-04 20:58:00,73.0,71.8,30.16,ENE,76,1.0,3.0,96,0.00,,---,0.00,VWS V14.01,2013-01-05 01:58:00,
2013-01-04 21:03:00,72.8,71.6,30.16,ENE,76,0.0,0.0,96,0.00,,---,0.00,VWS V14.01,2013-01-05 02:03:00,
2013-01-04 21:08:00,72.7,71.5,30.16,ENE,75,0.0,4.0,96,0.00,,---,0.00,VWS V14.01,2013-01-05 02:08:00,
2013-01-04 21:13:00,72.5,71.3,30.16,ENE,74,1.0,4.0,96,0.00,,---,0.00,VWS V14.01,2013-01-05 02:13:00,
2013-01-04 21:18:00,72.5,71.3,30.16,ENE,74,0.0,4.0,96,0.00,,---,0.00,VWS V14.01,2013-01-05 02:18:00,
2013-01-04 21:23:00,72.3,71.1,30.16,ENE,74,0.0,4.0,96,0.00,,---,0.00,VWS V14.01,2013-01-05 02:23:00,
2013-01-04 21:28:00,72.1,71.2,30.16,ENE,74,2.0,4.0,97,0.00,,---,0.00,VWS V14.01,2013-01-05 02:28:00,
2013-01-04 21:33:00,72.1,71.2,30.16,ENE,74,1.0,1.0,97,0.00,,---,0.00,VWS V14.01,2013-01-05 02:33:00,
2013-01-04 21:38:00,72.0,71.1,30.16,ENE,74,2.0,4.0,97,0.00,,---,0.00,VWS V14.01,2013-01-05 02:38:00,
2013-01-04 21:43:00,72.0,71.1,30.16,ENE,74,0.0,4.0,97,0.00,,---,0.00,VWS V14.01,2013-01-05 02:43:00,
2013-01-04 21:48:00,72.0,71.1,30.16,ENE,74,3.0,5.0,97,0.00,,---,0.00,VWS V14.01,2013-01-05 02:48:00,
2013-01-04 21:53:00,71.8,70.9,30.16,ENE,72,4.0,5.0,97,0.00,,---,0.00,VWS V14.01,2013-01-05 02:53:00,
2013-01-04 21:59:00,71.6,71.0,30.16,ENE,68,2.0,5.0,98,0.00,,---,0.00,VWS V14.01,2013-01-05 02:59:00,
2013-01-04 22:04:00,71.6,71.0,30.16,ENE,68,3.0,3.0,98,0.00,,---,0.00,VWS V14.01,2013-01-05 03:04:00,
2013-01-04 22:09:00,71.3,70.7,30.16,ENE,66,2.0,6.0,98,0.00,,---,0.00,VWS V14.01,2013-01-05 03:09:00,
2013-01-04 22:14:00,71.1,70.5,30.16,ENE,63,1.0,6.0,98,0.00,,---,0.00,VWS V14.01,2013-01-05 03:14:00,
2013-01-04 22:19:00,71.1,70.5,30.16,ENE,61,2.0,6.0,98,0.00,,---,0.00,VWS V14.01,2013-01-05 03:19:00,
2013-01-04 22:24:00,70.9,70.6,30.16,ENE,61,1.0,6.0,99,0.00,,---,0.00,VWS V14.01,2013-01-05 03:24:00,
2013-01-04 22:29:00,70.8,70.5,30.16,ENE,61,4.0,6.0,99,0.00,,---,0.00,VWS V14.01,2013-01-05 03:29:00,
2013-01-04 22:34:00,70.6,70.3,30.16,ENE,59,1.0,7.0,99,0.00,,---,0.00,VWS V14.01,2013-01-05 03:34:00,
2013-01-04 22:39:00,70.4,70.4,30.16,NE,43,1.0,7.0,100,0.00,,---,0.00,VWS V14.01,2013-01-05 03:39:00,
2013-01-04 22:44:00,70.3,70.3,30.16,NE,42,0.0,7.0,100,0.00,,---,0.00,VWS V14.01,2013-01-05 03:44:00,
2013-01-04 22:49:00,70.3,70.3,30.16,NE,42,0.0,7.0,100,0.00,,---,0.00,VWS V14.01,2013-01-05 03:49:00,
2013-01-04 22:54:00,70.1,70.1,30.16,NE,42,1.0,7.0,100,0.00,,---,0.00,VWS V14.01,2013-01-05 03:54:00,
2013-01-04 22:59:00,70.1,70.1,30.16,NE,42,5.0,7.0,100,0.00,,---,0.00,VWS V14.01,2013-01-05 03:59:00,
2013-01-04 23:04:00,69.9,69.9,30.16,NE,40,5.0,5.0,100,0.00,,---,0.00,VWS V14.01,2013-01-05 04:04:00,
2013-01-04 23:09:00,69.9,69.9,30.16,NE,39,0.0,5.0,100,0.00,,---,0.00,VWS V14.01,2013-01-05 04:09:00,
2013-01-04 23:14:00,69.8,69.8,30.16,NE,39,0.0,5.0,100,0.00,,---,0.00,VWS V14.01,2013-01-05 04:14:00,
2013-01-04 23:19:00,69.8,69.8,30.16,NE,39,0.0,5.0,100,0.00,,---,0.00,VWS V14.01,2013-01-05 04:19:00,
2013-01-04 23:24:00,69.8,69.8,30.16,NE,39,0.0,5.0,100,0.00,,---,0.00,VWS V14.01,2013-01-05 04:24:00,
2013-01-04 23:29:00,69.6,69.6,30.16,NE,39,1.0,5.0,100,0.00,,---,0.00,VWS V14.01,2013-01-05 04:29:00,
2013-01-04 23:35:00,69.6,69.6,30.16,NE,39,0.0,2.0,100,0.00,,---,0.00,VWS V14.01,2013-01-05 04:35:00,
2013-01-04 23:40:00,69.6,69.6,30.16,NE,39,0.0,2.0,100,0.00,,---,0.00,VWS V14.01,2013-01-05 04:40:00,
2013-01-04 23:45:00,69.6,69.6,30.16,NE,39,0.0,2.0,100,0.00,,---,0.00,VWS V14.01,2013-01-05 04:45:00,
2013-01-04 23:50:00,69.6,69.6,30.15,NE,39,0.0,2.0,100,0.00,,---,0.00,VWS V14.01,2013-01-05 04:50:00,
2013-01-04 23:55:00,69.4,69.4,30.15,NE,39,0.0,2.0,100,0.00,,---,0.00,VWS V14.01,2013-01-05 04:55:00,